Time;durP1;ratioP1;P1;durP2;ratioP2;P2;SDS_P1;SDS_P2;PMS_P1;PMS_P2;Temp;Humidity;BMP_temperature;BMP_pressure;BME280_temperature;BME280_humidity;BME280_pressure;Samples;Min_cycle;Max_cycle;Signal;HPM_P1;HPM_P2
2020/12/01 00:00:27;;;;;;;31.40;15.80;;;4.70;96.00;;;;;;5094061;28;20020;-80
2020/12/01 00:02:54;;;;;;;31.93;15.37;;;4.70;96.00;;;;;;5094796;28;20511;-80
2020/12/01 00:05:22;;;;;;;26.37;14.30;;;4.60;96.20;;;;;;5094936;28;20032;-79
2020/12/01 00:07:48;;;;;;;27.27;14.00;;;4.70;96.00;;;;;;5095061;28;20102;-80
2020/12/01 00:10:14;;;;;;;24.07;13.53;;;4.70;95.90;;;;;;5093955;28;20042;-80
2020/12/01 00:12:41;;;;;;;23.60;12.30;;;4.70;96.00;;;;;;5094343;28;20165;-80
2020/12/01 00:15:09;;;;;;;24.00;12.57;;;4.60;95.90;;;;;;5094451;28;20036;-81
2020/12/01 00:17:34;;;;;;;25.40;12.17;;;4.70;95.90;;;;;;5094080;28;20111;-79
2020/12/01 00:20:00;;;;;;;25.20;13.07;;;4.70;95.90;;;;;;5093810;28;20064;-80
2020/12/01 00:22:25;;;;;;;23.60;12.47;;;4.70;95.90;;;;;;5094351;28;20028;-80
2020/12/01 00:24:51;;;;;;;23.90;11.07;;;4.70;95.90;;;;;;5094031;28;20016;-81
2020/12/01 00:27:17;;;;;;;22.97;12.07;;;4.70;95.90;;;;;;5094038;28;20484;-80
2020/12/01 00:29:42;;;;;;;20.80;11.17;;;4.70;95.80;;;;;;5093692;28;20031;-80
2020/12/01 00:32:08;;;;;;;18.13;10.50;;;4.70;95.80;;;;;;5093989;28;20032;-81
2020/12/01 00:34:33;;;;;;;19.77;11.30;;;4.70;96.20;;;;;;5094127;28;20028;-81
2020/12/01 00:37:03;;;;;;;21.87;11.43;;;4.70;95.80;;;;;;5093817;28;20080;-80
2020/12/01 00:39:28;;;;;;;;;;;4.70;95.80;;;;;;5094160;28;20503;-80
2020/12/01 00:41:54;;;;;;;21.07;11.07;;;4.70;95.80;;;;;;5094317;28;19916;-80
2020/12/01 00:44:20;;;;;;;20.60;11.30;;;4.70;95.80;;;;;;5093892;28;20086;-80
2020/12/01 00:46:45;;;;;;;21.30;11.77;;;4.70;95.70;;;;;;5094074;28;20065;-81
2020/12/01 00:49:11;;;;;;;21.67;11.60;;;4.70;95.70;;;;;;5093647;28;20020;-81
2020/12/01 00:51:36;;;;;;;20.67;11.70;;;4.70;95.70;;;;;;5092658;28;20046;-80
2020/12/01 00:54:02;;;;;;;22.97;12.53;;;4.70;95.70;;;;;;5094668;28;20032;-80
2020/12/01 00:56:28;;;;;;;21.20;11.53;;;4.70;95.70;;;;;;5094362;28;20028;-79
2020/12/01 00:58:53;;;;;;;19.87;11.53;;;4.80;95.70;;;;;;5093419;28;20071;-81
2020/12/01 01:01:19;;;;;;;23.67;12.40;;;4.80;95.70;;;;;;5093867;28;20028;-80
2020/12/01 01:03:47;;;;;;;23.73;13.27;;;4.80;95.60;;;;;;5093804;28;20396;-80
2020/12/01 01:06:14;;;;;;;19.70;11.53;;;4.80;95.70;;;;;;5093978;28;20070;-80
2020/12/01 01:08:40;;;;;;;20.93;11.23;;;4.80;95.70;;;;;;5094100;28;20020;-81
2020/12/01 01:11:07;;;;;;;20.77;11.33;;;4.80;95.60;;;;;;5093545;28;20036;-81
2020/12/01 01:13:33;;;;;;;19.90;11.17;;;4.80;95.60;;;;;;5094148;28;20035;-80
2020/12/01 01:16:01;;;;;;;19.03;11.00;;;4.80;95.70;;;;;;5092985;28;20468;-80
2020/12/01 01:18:26;;;;;;;19.93;10.80;;;4.80;95.60;;;;;;5093854;28;20051;-81
2020/12/01 01:20:52;;;;;;;18.07;11.10;;;4.80;95.60;;;;;;5093140;28;20074;-81
2020/12/01 01:23:18;;;;;;;17.70;10.40;;;4.80;95.60;;;;;;5093618;28;20021;-81
2020/12/01 01:25:44;;;;;;;19.43;10.73;;;4.80;95.60;;;;;;5093790;28;20028;-81
2020/12/01 01:28:10;;;;;;;19.30;10.97;;;4.90;95.60;;;;;;5093370;28;20039;-80
2020/12/01 01:30:39;;;;;;;18.73;11.03;;;4.80;95.60;;;;;;5097289;28;20031;-80
2020/12/01 01:33:05;;;;;;;19.40;11.52;;;4.90;95.60;;;;;;5097392;28;20115;-81
2020/12/01 01:35:34;;;;;;;22.73;13.13;;;4.90;95.50;;;;;;5096027;28;20056;-81
2020/12/01 01:38:04;;;;;;;20.53;11.50;;;4.90;95.60;;;;;;5097168;28;20047;-78
2020/12/01 01:40:31;;;;;;;20.17;11.10;;;4.90;95.60;;;;;;5096998;28;20025;-80
2020/12/01 01:42:58;;;;;;;22.03;12.57;;;4.90;95.50;;;;;;5096868;28;20032;-81
2020/12/01 01:45:46;;;;;;;23.53;13.50;;;4.90;95.60;;;;;;5097492;28;20020;-81
2020/12/01 01:48:13;;;;;;;21.07;11.70;;;4.90;95.60;;;;;;5097092;28;20048;-80
2020/12/01 01:50:39;;;;;;;20.40;11.37;;;4.90;95.50;;;;;;5096648;28;20016;-80
2020/12/01 01:53:04;;;;;;;22.97;12.07;;;4.90;95.60;;;;;;5097005;28;20409;-80
2020/12/01 01:55:30;;;;;;;18.83;11.10;;;4.90;95.90;;;;;;5097086;28;20020;-80
2020/12/01 01:58:03;;;;;;;21.23;12.20;;;4.90;95.60;;;;;;5097215;28;20744;-80
2020/12/01 02:01:05;;;;;;;19.67;11.63;;;4.90;95.60;;;;;;5096590;28;20028;-80
2020/12/01 02:03:40;;;;;;;23.10;12.50;;;4.90;95.60;;;;;;5096797;28;20055;-80
2020/12/01 02:06:13;;;;;;;19.63;11.10;;;4.90;95.60;;;;;;5096868;28;20028;-80
2020/12/01 02:08:42;;;;;;;21.00;12.03;;;5.00;95.60;;;;;;5095390;28;20051;-81
2020/12/01 02:11:09;;;;;;;22.05;12.15;;;5.00;95.70;;;;;;5094869;28;20109;-80
2020/12/01 02:13:58;;;;;;;21.07;12.23;;;5.00;95.70;;;;;;5095461;28;20114;-80
2020/12/01 02:16:23;;;;;;;25.27;12.93;;;5.00;95.70;;;;;;5096619;28;20100;-81
2020/12/01 02:18:52;;;;;;;21.50;12.20;;;5.00;95.60;;;;;;5096465;28;20020;-80
2020/12/01 02:21:26;;;;;;;26.37;12.63;;;5.00;95.60;;;;;;5096034;28;20038;-80
2020/12/01 02:23:52;;;;;;;23.67;12.40;;;5.00;95.60;;;;;;5096625;28;20388;-80
2020/12/01 02:26:17;;;;;;;21.30;12.13;;;4.90;95.60;;;;;;5096531;28;20103;-80
2020/12/01 02:28:43;;;;;;;20.77;12.40;;;5.00;95.70;;;;;;5096816;28;20020;-80
2020/12/01 02:31:09;;;;;;;22.73;12.53;;;5.00;95.70;;;;;;5095977;28;20024;-80
2020/12/01 02:33:34;;;;;;;22.93;12.20;;;5.00;95.70;;;;;;5096172;28;20388;-80
2020/12/01 02:36:00;;;;;;;22.83;12.40;;;5.00;95.70;;;;;;5096006;28;20028;-80
2020/12/01 02:38:25;;;;;;;23.93;12.87;;;5.00;95.70;;;;;;5094997;28;20059;-81
2020/12/01 02:40:51;;;;;;;21.27;12.37;;;5.00;95.70;;;;;;5095331;28;20031;-80
2020/12/01 02:43:16;;;;;;;24.53;13.30;;;5.00;95.80;;;;;;5096736;28;20020;-80
2020/12/01 02:45:42;;;;;;;22.73;12.90;;;5.00;95.70;;;;;;5096454;28;20024;-81
2020/12/01 02:48:08;;;;;;;22.77;12.63;;;5.00;95.70;;;;;;5094866;28;20020;-81
2020/12/01 02:50:33;;;;;;;24.87;12.87;;;5.00;95.70;;;;;;5094192;28;20031;-81
2020/12/01 02:52:59;;;;;;;21.93;12.77;;;5.00;95.70;;;;;;5095982;28;20494;-80
2020/12/01 02:55:25;;;;;;;25.13;13.77;;;5.00;95.70;;;;;;5095803;28;20020;-80
2020/12/01 02:57:50;;;;;;;25.40;13.57;;;5.00;95.70;;;;;;5099498;22;20068;-86
2020/12/01 03:00:16;;;;;;;23.87;13.43;;;5.10;95.70;;;;;;5088703;28;20030;-87
2020/12/01 03:02:42;;;;;;;24.03;13.30;;;5.00;95.70;;;;;;5073500;28;20028;-87
2020/12/01 03:05:07;;;;;;;24.77;13.87;;;5.10;95.80;;;;;;5072271;28;20021;-87
2020/12/01 03:07:33;;;;;;;25.30;14.40;;;5.00;95.80;;;;;;5072197;28;20116;-86
2020/12/01 03:09:59;;;;;;;27.73;15.80;;;5.10;95.80;;;;;;5071480;28;20020;-86
2020/12/01 03:12:24;;;;;;;28.03;15.53;;;5.10;95.90;;;;;;5073182;28;20048;-87
2020/12/01 03:14:50;;;;;;;26.77;14.13;;;5.10;95.90;;;;;;5071971;28;20024;-87
2020/12/01 03:17:15;;;;;;;26.70;15.27;;;5.10;95.90;;;;;;5071976;28;20400;-87
2020/12/01 03:19:41;;;;;;;28.37;15.03;;;5.10;95.90;;;;;;5071313;28;20028;-86
2020/12/01 03:22:07;;;;;;;29.50;16.50;;;5.10;95.90;;;;;;5071770;28;20032;-87
2020/12/01 03:24:32;;;;;;;28.10;15.03;;;5.10;95.90;;;;;;5073085;28;20143;-87
2020/12/01 03:26:58;;;;;;;27.87;15.67;;;5.10;95.90;;;;;;5073063;28;20027;-87
2020/12/01 03:29:23;;;;;;;26.90;15.10;;;5.10;95.90;;;;;;5072413;28;20024;-86
2020/12/01 03:31:49;;;;;;;28.00;15.33;;;5.10;95.90;;;;;;5072809;28;20056;-87
2020/12/01 03:34:15;;;;;;;29.97;15.73;;;5.10;96.00;;;;;;5071643;28;20115;-87
2020/12/01 03:36:40;;;;;;;31.40;16.63;;;5.10;96.00;;;;;;5071563;28;20473;-87
2020/12/01 03:39:06;;;;;;;30.47;15.53;;;5.10;96.00;;;;;;5071186;28;20033;-87
2020/12/01 03:41:33;;;;;;;26.77;15.13;;;5.10;96.00;;;;;;5070573;28;20024;-86
2020/12/01 03:43:59;;;;;;;29.33;16.43;;;5.20;96.00;;;;;;5070378;28;20078;-87
2020/12/01 03:46:24;;;;;;;31.30;16.17;;;5.20;96.00;;;;;;5071263;28;20028;-87
2020/12/01 03:48:50;;;;;;;30.53;16.83;;;5.20;96.10;;;;;;5072275;28;20056;-86
2020/12/01 03:51:16;;;;;;;29.97;16.07;;;5.20;96.10;;;;;;5071724;28;20043;-87
2020/12/01 03:53:41;;;;;;;28.73;16.13;;;5.20;96.00;;;;;;5071263;28;20082;-87
2020/12/01 03:56:07;;;;;;;29.50;15.50;;;5.20;96.00;;;;;;5072500;28;20296;-87
2020/12/01 03:58:32;;;;;;;28.47;16.00;;;5.20;96.00;;;;;;5071472;28;20463;-87
2020/12/01 04:00:58;;;;;;;29.80;16.77;;;5.20;96.00;;;;;;5070497;28;20070;-87
2020/12/01 04:03:24;;;;;;;34.20;17.30;;;5.20;96.00;;;;;;5072423;28;20025;-87
2020/12/01 04:05:50;;;;;;;33.97;17.47;;;5.20;96.00;;;;;;5071061;28;20469;-86
2020/12/01 04:08:15;;;;;;;31.10;16.63;;;5.20;96.10;;;;;;5071036;28;20035;-87
2020/12/01 04:10:41;;;;;;;28.70;16.30;;;5.30;96.10;;;;;;5071759;28;20024;-87
2020/12/01 04:13:07;;;;;;;30.90;17.20;;;5.20;96.10;;;;;;5070901;28;20024;-87
2020/12/01 04:15:33;;;;;;;29.17;16.30;;;5.20;96.10;;;;;;5071253;28;20028;-87
2020/12/01 04:17:59;;;;;;;31.77;16.57;;;5.20;96.10;;;;;;5072134;28;20035;-87
2020/12/01 04:20:24;;;;;;;30.70;16.70;;;5.20;96.10;;;;;;5070335;28;20033;-87
2020/12/01 04:22:50;;;;;;;29.77;16.73;;;5.20;96.10;;;;;;5070672;28;20119;-87
2020/12/01 04:25:21;;;;;;;26.90;15.87;;;5.20;96.10;;;;;;5072255;28;20032;-87
2020/12/01 04:27:47;;;;;;;32.00;16.47;;;5.30;96.10;;;;;;5070917;28;20483;-87
2020/12/01 04:30:12;;;;;;;31.77;17.43;;;5.30;96.10;;;;;;5072171;28;20104;-87
2020/12/01 04:32:38;;;;;;;31.03;16.33;;;5.30;96.10;;;;;;5070814;28;20512;-87
2020/12/01 04:35:05;;;;;;;30.30;17.00;;;5.30;96.10;;;;;;5070736;28;20095;-87
2020/12/01 04:37:31;;;;;;;30.33;17.33;;;5.30;96.10;;;;;;5070646;28;20470;-87
2020/12/01 04:39:56;;;;;;;29.70;16.20;;;5.30;96.10;;;;;;5070065;28;20127;-87
2020/12/01 04:42:23;;;;;;;28.30;16.57;;;5.30;96.10;;;;;;5070533;28;20123;-87
2020/12/01 04:45:04;;;;;;;29.93;16.40;;;5.30;96.10;;;;;;5070591;28;20028;-86
2020/12/01 04:47:35;;;;;;;30.90;17.37;;;5.30;96.10;;;;;;5070641;28;20055;-87
2020/12/01 04:50:09;;;;;;;31.17;17.03;;;5.30;96.10;;;;;;5070225;28;20552;-86
2020/12/01 04:53:03;;;;;;;32.70;16.80;;;5.30;96.10;;;;;;5070550;28;20029;-87
2020/12/01 04:55:47;;;;;;;31.97;16.87;;;5.30;96.10;;;;;;5071982;28;20495;-87
2020/12/01 04:58:31;;;;;;;30.33;16.30;;;5.30;96.10;;;;;;5070617;28;20036;-87
2020/12/01 05:01:02;;;;;;;31.07;17.30;;;5.30;96.10;;;;;;5070993;28;20049;-87
2020/12/01 05:03:36;;;;;;;31.83;16.53;;;5.30;96.10;;;;;;5075324;28;20021;-87
2020/12/01 05:06:35;;;;;;;33.13;17.20;;;5.30;96.10;;;;;;5074881;28;20024;-87
2020/12/01 05:09:20;;;;;;;31.77;16.73;;;5.30;96.10;;;;;;5075815;28;20013;-87
2020/12/01 05:12:01;;;;;;;30.07;16.20;;;5.30;96.10;;;;;;5075935;28;20078;-87
2020/12/01 05:15:05;;;;;;;32.53;17.27;;;5.30;96.30;;;;;;5074636;28;20396;-87
2020/12/01 05:17:49;;;;;;;31.70;16.53;;;5.30;96.00;;;;;;5053643;28;20038;-88
2020/12/01 05:20:15;;;;;;;33.33;18.07;;;5.30;96.00;;;;;;5075042;28;20420;-87
2020/12/01 05:22:47;;;;;;;29.83;17.07;;;5.40;96.00;;;;;;5075410;28;20491;-87
2020/12/01 05:25:25;;;;;;;32.03;16.63;;;5.40;96.00;;;;;;5074287;28;20474;-87
2020/12/01 05:28:12;;;;;;;32.93;17.33;;;5.40;96.10;;;;;;5074175;28;20024;-88
2020/12/01 05:30:40;;;;;;;30.93;17.33;;;5.40;96.10;;;;;;5074971;28;20025;-87
2020/12/01 05:33:27;;;;;;;31.43;16.67;;;5.40;96.00;;;;;;5074974;28;20125;-86
2020/12/01 05:36:03;;;;;;;30.93;16.53;;;5.40;96.00;;;;;;5075157;28;20064;-87
2020/12/01 05:38:30;;;;;;;29.43;16.57;;;5.40;96.00;;;;;;5073999;28;20082;-88
2020/12/01 05:41:14;;;;;;;31.33;17.50;;;5.40;96.00;;;;;;5073536;28;20047;-86
2020/12/01 05:43:40;;;;;;;29.60;16.77;;;5.40;96.00;;;;;;5075706;28;20074;-87
2020/12/01 05:46:23;;;;;;;33.53;17.10;;;5.40;96.00;;;;;;5075535;28;20029;-87
2020/12/01 05:49:26;;;;;;;26.73;15.70;;;5.40;96.00;;;;;;5074083;28;20021;-87
2020/12/01 05:52:18;;;;;;;29.53;15.20;;;5.40;95.90;;;;;;5038449;28;20046;-86
2020/12/01 05:54:48;;;;;;;27.47;15.63;;;5.40;95.90;;;;;;5074300;28;20017;-87
2020/12/01 05:57:24;;;;;;;30.93;15.87;;;5.40;95.90;;;;;;5074153;28;20039;-87
2020/12/01 06:00:06;;;;;;;29.93;15.23;;;5.40;95.90;;;;;;5073089;28;20115;-87
2020/12/01 06:02:52;;;;;;;28.87;16.80;;;5.40;95.90;;;;;;5073376;28;20024;-88
2020/12/01 06:05:22;;;;;;;31.50;15.53;;;5.40;95.90;;;;;;5073502;28;20017;-87
2020/12/01 06:07:49;;;;;;;27.33;15.20;;;5.40;95.90;;;;;;5073332;28;20115;-88
2020/12/01 06:10:18;;;;;;;28.70;16.00;;;5.40;95.80;;;;;;5072848;28;20021;-87
2020/12/01 06:13:04;;;;;;;31.85;15.40;;;5.40;95.80;;;;;;5073183;28;20021;-87
2020/12/01 06:15:32;;;;;;;29.80;15.70;;;5.50;95.80;;;;;;5072855;28;20402;-87
2020/12/01 06:18:17;;;;;;;29.07;15.50;;;5.50;95.80;;;;;;5073450;28;20384;-87
2020/12/01 06:21:02;;;;;;;27.77;15.47;;;5.50;95.80;;;;;;5072976;28;20028;-87
2020/12/01 06:23:28;;;;;;;26.23;14.93;;;5.50;95.80;;;;;;5073252;28;20024;-87
2020/12/01 06:26:21;;;;;;;32.13;15.60;;;5.50;95.80;;;;;;5074685;28;20592;-86
2020/12/01 06:28:52;;;;;;;28.27;15.40;;;5.50;95.80;;;;;;5074569;28;20031;-87
2020/12/01 06:31:35;;;;;;;24.53;15.00;;;5.50;95.80;;;;;;5072944;28;20538;-86
2020/12/01 06:34:28;;;;;;;29.67;15.90;;;5.50;95.80;;;;;;5074491;28;20039;-87
2020/12/01 06:37:18;;;;;;;25.70;14.27;;;5.50;95.80;;;;;;5072934;28;20036;-87
2020/12/01 06:39:52;;;;;;;27.37;14.90;;;5.50;95.80;;;;;;5072661;28;20030;-87
2020/12/01 06:42:25;;;;;;;27.20;15.67;;;5.50;95.80;;;;;;5074608;28;20020;-87
2020/12/01 06:44:58;;;;;;;27.87;15.57;;;5.50;95.80;;;;;;5073172;28;20100;-87
2020/12/01 06:47:28;;;;;;;28.87;15.93;;;5.50;95.80;;;;;;5072919;28;20024;-86
2020/12/01 06:49:58;;;;;;;30.07;15.80;;;5.50;95.80;;;;;;5072203;28;20052;-86
2020/12/01 06:52:24;;;;;;;28.60;14.43;;;5.50;95.80;;;;;;5072834;28;20111;-87
2020/12/01 06:54:55;;;;;;;29.47;15.90;;;5.50;95.80;;;;;;5073027;28;20286;-87
2020/12/01 06:57:29;;;;;;;30.43;14.90;;;5.50;95.80;;;;;;5072542;28;20039;-87
2020/12/01 06:59:55;;;;;;;28.57;15.70;;;5.50;95.80;;;;;;5073313;28;20035;-86
2020/12/01 07:02:20;;;;;;;29.37;15.27;;;5.50;95.80;;;;;;5072500;28;20059;-87
2020/12/01 07:04:47;;;;;;;25.13;14.53;;;5.50;95.80;;;;;;5073709;28;20024;-86
2020/12/01 07:07:27;;;;;;;27.83;15.03;;;5.50;95.80;;;;;;5074058;28;20025;-88
2020/12/01 07:09:53;;;;;;;28.37;15.83;;;5.50;95.80;;;;;;5073162;28;20031;-87
2020/12/01 07:12:20;;;;;;;30.33;15.63;;;5.60;95.80;;;;;;5073672;28;20032;-86
2020/12/01 07:15:01;;;;;;;29.60;14.33;;;5.60;95.80;;;;;;5072783;28;20069;-87
2020/12/01 07:17:35;;;;;;;32.40;15.00;;;5.60;95.80;;;;;;5072470;28;20066;-86
2020/12/01 07:20:25;;;;;;;26.87;14.50;;;5.60;95.80;;;;;;5073433;28;20078;-87
2020/12/01 07:22:55;;;;;;;29.13;14.47;;;5.60;95.80;;;;;;5072430;28;20029;-87
2020/12/01 07:25:35;;;;;;;24.73;12.50;;;5.60;95.80;;;;;;5071733;28;20028;-87
2020/12/01 07:28:02;;;;;;;27.70;13.47;;;5.60;95.90;;;;;;5073583;28;20021;-87
2020/12/01 07:30:29;;;;;;;24.13;10.67;;;5.60;95.90;;;;;;5071695;28;20497;-87
2020/12/01 07:32:57;;;;;;;20.90;10.13;;;5.60;96.00;;;;;;5072157;28;20028;-87
2020/12/01 07:35:43;;;;;;;23.77;9.68;;;5.70;96.00;;;;;;5073210;28;20029;-87
2020/12/01 07:38:35;;;;;;;27.13;8.60;;;5.70;96.10;;;;;;5071712;28;20413;-87
2020/12/01 07:41:25;;;;;;;29.87;7.87;;;5.70;96.30;;;;;;5071491;28;20131;-87
2020/12/01 07:44:03;;;;;;;26.23;7.57;;;5.80;96.40;;;;;;5072103;28;20428;-87
2020/12/01 07:46:29;;;;;;;38.60;8.93;;;5.80;96.70;;;;;;5071377;28;20028;-87
2020/12/01 07:49:02;;;;;;;44.23;10.20;;;5.80;97.00;;;;;;5071163;28;20043;-86
2020/12/01 07:51:30;;;;;;;26.13;8.17;;;5.90;96.90;;;;;;5071552;28;20059;-87
2020/12/01 07:53:57;;;;;;;26.33;8.60;;;5.90;96.80;;;;;;5071691;28;20115;-87
2020/12/01 07:56:26;;;;;;;26.50;7.83;;;5.90;96.90;;;;;;5150392;22;20394;-87
2020/12/01 07:59:02;;;;;;;23.33;7.10;;;5.90;96.90;;;;;;5093106;28;20033;-86
2020/12/01 08:01:27;;;;;;;30.00;7.47;;;5.90;96.80;;;;;;5074712;28;20063;-87
2020/12/01 08:04:03;;;;;;;23.77;8.70;;;5.90;96.80;;;;;;5075054;28;20055;-86
2020/12/01 08:06:29;;;;;;;30.10;7.50;;;6.00;96.90;;;;;;5074796;28;20035;-87
2020/12/01 08:08:57;;;;;;;23.00;7.30;;;6.00;96.90;;;;;;5076548;28;20020;-88
2020/12/01 08:11:23;;;;;;;27.17;6.85;;;6.00;96.90;;;;;;5094585;28;20020;-88
2020/12/01 08:13:56;;;;;;;25.33;7.07;;;5.90;96.80;;;;;;5094150;28;20027;-85
2020/12/01 08:16:24;;;;;;;28.70;7.37;;;6.00;96.90;;;;;;5075379;28;20157;-87
2020/12/01 08:18:52;;;;;;;28.03;8.10;;;6.00;96.80;;;;;;5075703;28;20031;-86
2020/12/01 08:21:23;;;;;;;23.03;7.57;;;6.00;96.80;;;;;;5075670;28;20028;-86
2020/12/01 08:23:52;;;;;;;24.27;7.57;;;6.00;96.90;;;;;;5077386;28;20020;-85
2020/12/01 08:26:31;;;;;;;24.77;7.43;;;6.00;96.80;;;;;;5075325;28;20114;-86
2020/12/01 08:28:59;;;;;;;23.35;8.70;;;6.00;96.80;;;;;;5093096;28;20027;-85
2020/12/01 08:31:38;;;;;;;17.93;7.20;;;6.00;96.80;;;;;;5074603;28;20481;-85
2020/12/01 08:34:41;;;;;;;25.58;7.63;;;6.00;97.10;;;;;;5093232;28;20024;-86
2020/12/01 08:37:37;;;;;;;23.13;7.73;;;6.00;96.80;;;;;;5092332;28;20388;-85
2020/12/01 08:40:10;;;;;;;23.83;7.60;;;6.00;96.80;;;;;;5092300;28;20472;-86
2020/12/01 08:42:49;;;;;;;23.90;7.67;;;6.10;96.90;;;;;;5076372;28;20055;-87
2020/12/01 08:45:14;;;;;;;19.53;6.87;;;6.10;96.80;;;;;;5074672;28;20020;-85
2020/12/01 08:47:42;;;;;;;26.03;7.37;;;6.10;96.80;;;;;;5073916;28;20569;-85
2020/12/01 08:50:27;;;;;;;21.87;7.90;;;6.10;96.90;;;;;;5074258;28;20076;-86
2020/12/01 08:53:04;;;;;;;18.90;7.20;;;6.10;96.90;;;;;;5074738;28;20028;-86
2020/12/01 08:55:45;;;;;;;19.17;7.40;;;6.20;96.90;;;;;;5092682;28;20035;-85
2020/12/01 08:58:36;;;;;;;24.17;8.37;;;6.10;96.80;;;;;;5093690;28;20040;-86
2020/12/01 09:01:13;;;;;;;27.43;10.57;;;6.20;96.90;;;;;;5092272;28;20042;-85
2020/12/01 09:03:51;;;;;;;28.60;10.53;;;6.20;96.90;;;;;;5074689;28;20028;-85
2020/12/01 09:06:33;;;;;;;23.87;9.17;;;6.20;96.90;;;;;;5074248;28;20032;-85
2020/12/01 09:09:06;;;;;;;21.17;7.00;;;6.20;96.90;;;;;;5092220;28;20442;-87
2020/12/01 09:23:24;;;;;;;20.20;7.80;;;6.30;97.00;;;;;;5092564;28;20043;-85
2020/12/01 09:25:51;;;;;;;16.83;6.65;;;6.30;97.10;;;;;;5075570;28;20465;-87
2020/12/01 09:28:24;;;;;;;20.63;8.00;;;6.30;97.10;;;;;;5074035;28;20109;-87
2020/12/01 09:30:50;;;;;;;21.43;7.63;;;6.40;97.10;;;;;;5091631;28;20024;-87
2020/12/01 09:33:19;;;;;;;22.47;8.23;;;6.40;97.20;;;;;;5074037;28;20028;-87
2020/12/01 09:35:46;;;;;;;18.48;8.15;;;6.40;97.20;;;;;;5092357;28;20059;-86
2020/12/01 09:38:12;;;;;;;19.63;7.93;;;6.40;97.20;;;;;;5074077;28;20425;-87
2020/12/01 09:40:38;;;;;;;17.23;7.10;;;6.40;97.20;;;;;;5091423;28;20024;-87
2020/12/01 09:43:13;;;;;;;20.70;8.10;;;6.40;97.20;;;;;;5073809;28;20515;-87
2020/12/01 09:45:41;;;;;;;26.70;8.50;;;6.40;97.20;;;;;;5074138;28;20024;-87
2020/12/01 09:50:50;;;;;;;20.50;8.80;;;6.40;97.40;;;;;;5094957;28;20056;-86
2020/12/01 10:35:35;;;;;;;14.33;7.20;;;6.50;98.00;;;;;;5094968;28;20157;-87
2020/12/01 10:38:02;;;;;;;12.43;7.70;;;6.50;97.70;;;;;;5076696;28;20077;-87
2020/12/01 10:40:29;;;;;;;16.63;8.50;;;6.50;97.70;;;;;;5075883;28;20062;-87
2020/12/01 10:42:56;;;;;;;16.47;9.30;;;6.50;97.70;;;;;;5077054;28;20031;-86
2020/12/01 10:45:23;;;;;;;16.63;10.37;;;6.50;97.80;;;;;;5077468;28;20025;-87
2020/12/01 10:47:49;;;;;;;20.47;11.10;;;6.50;97.90;;;;;;5076484;28;20020;-86
2020/12/01 10:50:20;;;;;;;22.10;12.03;;;6.50;97.90;;;;;;5075977;28;20023;-87
2020/12/01 10:52:45;;;;;;;27.00;14.00;;;6.50;97.80;;;;;;5076446;28;20063;-87
2020/12/01 10:55:21;;;;;;;24.80;13.13;;;6.60;98.20;;;;;;5076256;28;20051;-87
2020/12/01 10:57:47;;;;;;;24.23;12.50;;;6.50;98.10;;;;;;5094060;28;20031;-87
2020/12/01 11:00:13;;;;;;;22.87;12.67;;;6.60;98.10;;;;;;5093629;28;20545;-87
2020/12/01 11:02:38;;;;;;;32.07;14.17;;;6.60;98.00;;;;;;5075912;28;20024;-86
2020/12/01 11:05:07;;;;;;;27.57;14.30;;;6.60;98.10;;;;;;5094147;28;20024;-87
2020/12/01 11:07:32;;;;;;;30.53;13.27;;;6.60;98.10;;;;;;5093870;28;20100;-87
2020/12/01 11:09:58;;;;;;;28.93;13.97;;;6.60;98.10;;;;;;5075448;28;20455;-87
2020/12/01 11:12:24;;;;;;;29.37;13.63;;;6.70;98.20;;;;;;5075569;28;20027;-86
2020/12/01 11:14:49;;;;;;;32.87;14.90;;;6.70;98.10;;;;;;5075922;28;20074;-87
2020/12/01 11:17:15;;;;;;;28.93;14.30;;;6.70;98.10;;;;;;5075645;28;20024;-87
2020/12/01 11:19:40;;;;;;;31.73;13.03;;;6.70;98.20;;;;;;5075124;28;20483;-87
2020/12/01 11:22:06;;;;;;;28.93;14.23;;;6.70;98.10;;;;;;5075240;28;20024;-87
2020/12/01 11:24:31;;;;;;;30.03;14.57;;;6.70;98.10;;;;;;5075783;28;20016;-88
2020/12/01 11:26:57;;;;;;;30.70;15.53;;;6.70;98.20;;;;;;5075402;28;20078;-87
2020/12/01 11:29:26;;;;;;;31.37;14.90;;;6.70;98.20;;;;;;5093172;28;20024;-87
2020/12/01 11:31:51;;;;;;;27.98;14.93;;;6.70;98.20;;;;;;5075276;28;20069;-87
2020/12/01 11:34:17;;;;;;;32.43;15.27;;;6.70;98.20;;;;;;5075453;28;20028;-87
2020/12/01 11:36:42;;;;;;;28.83;13.63;;;6.70;98.20;;;;;;5075313;28;20435;-86
2020/12/01 11:39:12;;;;;;;31.67;13.83;;;6.80;98.30;;;;;;5074938;28;20024;-87
2020/12/01 11:41:38;;;;;;;;;;;6.80;98.30;;;;;;5075720;28;20020;-87
2020/12/01 11:44:04;;;;;;;30.80;13.27;;;6.80;98.30;;;;;;5075060;28;19911;-87
2020/12/01 11:46:30;;;;;;;25.70;11.97;;;6.90;98.40;;;;;;5075139;28;20496;-87
2020/12/01 11:49:01;;;;;;;22.90;11.63;;;6.80;98.40;;;;;;5092680;28;20031;-87
2020/12/01 11:51:27;;;;;;;25.83;12.53;;;6.90;98.60;;;;;;5093257;28;20017;-86
2020/12/01 11:53:52;;;;;;;24.37;11.97;;;6.90;98.70;;;;;;5075102;28;20020;-86
2020/12/01 11:56:18;;;;;;;25.10;11.13;;;7.00;98.90;;;;;;5075440;28;20031;-87
2020/12/01 11:58:43;;;;;;;21.17;10.30;;;7.00;99.00;;;;;;5075109;28;20047;-87
2020/12/01 12:01:10;;;;;;;21.43;10.30;;;7.00;99.00;;;;;;5074333;28;20078;-86
2020/12/01 12:03:36;;;;;;;18.13;8.90;;;7.00;99.00;;;;;;5075184;28;20085;-87
2020/12/01 12:06:02;;;;;;;19.20;9.20;;;7.00;99.10;;;;;;5092870;28;20028;-87
2020/12/01 12:08:27;;;;;;;19.73;9.47;;;7.00;99.10;;;;;;5075100;28;20035;-87
2020/12/01 12:10:53;;;;;;;24.20;10.03;;;7.00;99.10;;;;;;5074213;28;20052;-87
2020/12/01 12:13:19;;;;;;;22.13;9.00;;;7.00;99.40;;;;;;5092438;28;20519;-85
2020/12/01 12:15:44;;;;;;;28.80;11.23;;;7.10;99.40;;;;;;5093040;28;20422;-87
2020/12/01 12:18:10;;;;;;;30.53;12.87;;;7.20;99.90;;;;;;5092842;28;20075;-87
2020/12/01 12:20:36;;;;;;;30.97;13.20;;;7.20;99.90;;;;;;5092613;28;20020;-87
2020/12/01 12:23:01;;;;;;;34.97;12.90;;;7.20;99.90;;;;;;5095904;28;20024;-86
2020/12/01 12:25:27;;;;;;;37.87;13.10;;;7.30;99.90;;;;;;5093054;28;20050;-86
2020/12/01 12:27:52;;;;;;;33.07;13.63;;;7.20;99.70;;;;;;5074177;28;20035;-87
2020/12/01 12:30:18;;;;;;;37.03;15.43;;;7.30;99.80;;;;;;5074042;28;20020;-87
2020/12/01 12:32:44;;;;;;;40.87;15.83;;;7.30;99.90;;;;;;5074488;28;20035;-87
2020/12/01 12:35:09;;;;;;;25.57;9.33;;;7.30;99.80;;;;;;5074459;28;20032;-87
2020/12/01 12:37:38;;;;;;;17.07;6.33;;;7.30;99.70;;;;;;5074688;28;20395;-87
2020/12/01 12:40:06;;;;;;;17.25;5.18;;;7.30;99.40;;;;;;5073670;28;20068;-87
2020/12/01 12:42:32;;;;;;;15.17;4.97;;;7.40;99.20;;;;;;5092210;28;20028;-86
2020/12/01 12:44:57;;;;;;;14.77;4.70;;;7.40;99.10;;;;;;5074180;28;20035;-87
2020/12/01 12:47:23;;;;;;;13.87;4.13;;;7.40;98.90;;;;;;5074420;28;20103;-87
2020/12/01 12:49:49;;;;;;;11.43;4.17;;;7.40;98.90;;;;;;5091816;28;20032;-87
2020/12/01 12:52:15;;;;;;;13.10;3.80;;;7.40;98.80;;;;;;5092440;28;20020;-87
2020/12/01 12:54:41;;;;;;;11.67;3.50;;;7.40;98.80;;;;;;5074533;28;20024;-87
2020/12/01 12:57:06;;;;;;;14.77;3.93;;;7.40;98.80;;;;;;5074495;28;20036;-87
2020/12/01 12:59:32;;;;;;;16.67;4.10;;;7.40;98.80;;;;;;5073729;28;20024;-87
2020/12/01 13:01:58;;;;;;;16.33;4.30;;;7.40;98.70;;;;;;5073974;28;20110;-87
2020/12/01 13:04:24;;;;;;;17.00;4.30;;;7.40;98.80;;;;;;5073973;28;20081;-87
2020/12/01 13:06:49;;;;;;;18.83;4.57;;;7.40;98.50;;;;;;5074059;28;20017;-87
2020/12/01 13:09:15;;;;;;;14.60;4.17;;;7.40;98.60;;;;;;5073556;28;20111;-87
2020/12/01 13:11:41;;;;;;;18.67;4.23;;;7.50;98.40;;;;;;5092129;28;20052;-87
2020/12/01 13:14:06;;;;;;;19.50;4.90;;;7.50;98.40;;;;;;5074285;28;20035;-87
2020/12/01 13:16:32;;;;;;;13.77;4.53;;;7.50;98.40;;;;;;5073972;28;20115;-87
2020/12/01 13:18:57;;;;;;;14.70;4.43;;;7.50;98.20;;;;;;5073337;28;20024;-87
2020/12/01 13:21:23;;;;;;;14.77;4.73;;;7.50;98.20;;;;;;5074192;28;20024;-87
2020/12/01 13:23:49;;;;;;;13.63;4.33;;;7.50;98.20;;;;;;5092776;28;20018;-86
2020/12/01 13:26:21;;;;;;;16.60;4.47;;;7.40;98.50;;;;;;5096625;28;20154;-87
2020/12/01 13:28:47;;;;;;;16.53;4.70;;;7.50;98.30;;;;;;5077651;28;20024;-85
2020/12/01 13:31:13;;;;;;;13.77;4.60;;;7.50;98.20;;;;;;5077080;28;20031;-86
2020/12/01 13:33:39;;;;;;;16.33;4.93;;;7.50;98.50;;;;;;5077830;28;20024;-86
2020/12/01 13:36:04;;;;;;;18.37;4.90;;;7.40;98.60;;;;;;5095736;28;20031;-86
2020/12/01 13:38:30;;;;;;;17.80;4.70;;;7.50;98.40;;;;;;5077737;28;20028;-86
2020/12/01 13:40:56;;;;;;;17.63;5.00;;;7.50;98.40;;;;;;5076809;28;20030;-86
2020/12/01 13:43:21;;;;;;;12.77;4.13;;;7.50;98.40;;;;;;5076888;28;20446;-86
2020/12/01 13:45:47;;;;;;;13.97;4.60;;;7.50;98.40;;;;;;5077586;28;20031;-86
2020/12/01 13:48:13;;;;;;;19.80;4.90;;;7.40;98.40;;;;;;5077477;28;20107;-86
2020/12/01 13:50:38;;;;;;;15.33;4.50;;;7.40;98.40;;;;;;5094905;28;20358;-86